sensor_id;sensor_type;location;lat;lon;timestamp;P1;durP1;ratioP1;P2;durP2;ratioP2
16642;SDS011;8435;52.184;5.406;2023-04-24T00:01:50;1.47;;;1.23;;
16642;SDS011;8435;52.184;5.406;2023-04-24T00:04:17;1.20;;;1.03;;
16642;SDS011;8435;52.184;5.406;2023-04-24T00:06:45;0.80;;;0.70;;
16642;SDS011;8435;52.184;5.406;2023-04-24T00:09:14;1.30;;;0.70;;
16642;SDS011;8435;52.184;5.406;2023-04-24T00:11:41;1.07;;;0.60;;
16642;SDS011;8435;52.184;5.406;2023-04-24T00:14:08;0.70;;;0.70;;
16642;SDS011;8435;52.184;5.406;2023-04-24T00:16:36;1.07;;;0.77;;
16642;SDS011;8435;52.184;5.406;2023-04-24T00:19:04;1.17;;;0.90;;
16642;SDS011;8435;52.184;5.406;2023-04-24T00:21:33;0.73;;;0.73;;
16642;SDS011;8435;52.184;5.406;2023-04-24T00:24:00;0.70;;;0.70;;
16642;SDS011;8435;52.184;5.406;2023-04-24T00:26:27;1.70;;;0.70;;
16642;SDS011;8435;52.184;5.406;2023-04-24T00:28:54;0.60;;;0.60;;
16642;SDS011;8435;52.184;5.406;2023-04-24T00:31:20;0.67;;;0.67;;
16642;SDS011;8435;52.184;5.406;2023-04-24T00:33:47;0.43;;;0.40;;
16642;SDS011;8435;52.184;5.406;2023-04-24T00:36:15;1.17;;;0.60;;
16642;SDS011;8435;52.184;5.406;2023-04-24T00:38:44;0.40;;;0.40;;
16642;SDS011;8435;52.184;5.406;2023-04-24T00:41:11;0.80;;;0.67;;
16642;SDS011;8435;52.184;5.406;2023-04-24T00:43:38;1.03;;;0.60;;
16642;SDS011;8435;52.184;5.406;2023-04-24T00:46:05;0.40;;;0.40;;
16642;SDS011;8435;52.184;5.406;2023-04-24T00:48:32;0.40;;;0.40;;
16642;SDS011;8435;52.184;5.406;2023-04-24T00:51:00;0.70;;;0.50;;
16642;SDS011;8435;52.184;5.406;2023-04-24T00:53:28;0.40;;;0.40;;
16642;SDS011;8435;52.184;5.406;2023-04-24T00:55:55;0.50;;;0.50;;
16642;SDS011;8435;52.184;5.406;2023-04-24T00:58:24;0.40;;;0.40;;
16642;SDS011;8435;52.184;5.406;2023-04-24T01:00:51;0.50;;;0.50;;
16642;SDS011;8435;52.184;5.406;2023-04-24T01:03:20;0.50;;;0.50;;
16642;SDS011;8435;52.184;5.406;2023-04-24T01:05:52;0.67;;;0.67;;
16642;SDS011;8435;52.184;5.406;2023-04-24T01:08:24;0.90;;;0.60;;
16642;SDS011;8435;52.184;5.406;2023-04-24T01:10:54;0.57;;;0.50;;
16642;SDS011;8435;52.184;5.406;2023-04-24T01:13:25;0.60;;;0.60;;
16642;SDS011;8435;52.184;5.406;2023-04-24T01:15:51;0.60;;;0.60;;
16642;SDS011;8435;52.184;5.406;2023-04-24T01:18:18;0.57;;;0.50;;
16642;SDS011;8435;52.184;5.406;2023-04-24T01:20:46;0.80;;;0.63;;
16642;SDS011;8435;52.184;5.406;2023-04-24T01:23:15;0.60;;;0.60;;
16642;SDS011;8435;52.184;5.406;2023-04-24T01:25:42;0.80;;;0.80;;
16642;SDS011;8435;52.184;5.406;2023-04-24T01:28:10;0.70;;;0.70;;
16642;SDS011;8435;52.184;5.406;2023-04-24T01:30:39;0.90;;;0.80;;
16642;SDS011;8435;52.184;5.406;2023-04-24T01:33:05;1.13;;;0.90;;
16642;SDS011;8435;52.184;5.406;2023-04-24T01:35:34;1.30;;;0.83;;
16642;SDS011;8435;52.184;5.406;2023-04-24T01:38:02;1.33;;;1.23;;
16642;SDS011;8435;52.184;5.406;2023-04-24T01:40:30;1.10;;;1.10;;
16642;SDS011;8435;52.184;5.406;2023-04-24T01:42:59;1.60;;;1.50;;
16642;SDS011;8435;52.184;5.406;2023-04-24T01:45:26;1.50;;;1.40;;
16642;SDS011;8435;52.184;5.406;2023-04-24T01:47:56;2.03;;;1.67;;
16642;SDS011;8435;52.184;5.406;2023-04-24T01:50:23;1.77;;;1.67;;
16642;SDS011;8435;52.184;5.406;2023-04-24T01:52:52;1.50;;;1.50;;
16642;SDS011;8435;52.184;5.406;2023-04-24T01:55:19;2.10;;;1.73;;
16642;SDS011;8435;52.184;5.406;2023-04-24T01:57:47;2.13;;;2.03;;
16642;SDS011;8435;52.184;5.406;2023-04-24T02:00:14;2.27;;;2.17;;
16642;SDS011;8435;52.184;5.406;2023-04-24T02:02:41;2.77;;;2.13;;
16642;SDS011;8435;52.184;5.406;2023-04-24T02:05:08;2.17;;;2.07;;
16642;SDS011;8435;52.184;5.406;2023-04-24T02:07:36;2.27;;;2.17;;
16642;SDS011;8435;52.184;5.406;2023-04-24T02:10:05;2.40;;;2.20;;
16642;SDS011;8435;52.184;5.406;2023-04-24T02:12:32;2.33;;;2.20;;
16642;SDS011;8435;52.184;5.406;2023-04-24T02:15:00;2.60;;;2.40;;
16642;SDS011;8435;52.184;5.406;2023-04-24T02:17:30;2.70;;;2.50;;
16642;SDS011;8435;52.184;5.406;2023-04-24T02:19:57;2.67;;;2.47;;
16642;SDS011;8435;52.184;5.406;2023-04-24T02:22:24;2.70;;;2.50;;
16642;SDS011;8435;52.184;5.406;2023-04-24T02:24:50;2.70;;;2.50;;
16642;SDS011;8435;52.184;5.406;2023-04-24T02:27:17;2.70;;;2.50;;
16642;SDS011;8435;52.184;5.406;2023-04-24T02:29:44;3.17;;;2.97;;
16642;SDS011;8435;52.184;5.406;2023-04-24T02:32:15;2.87;;;2.67;;
16642;SDS011;8435;52.184;5.406;2023-04-24T02:34:41;3.57;;;3.37;;
16642;SDS011;8435;52.184;5.406;2023-04-24T02:37:11;3.33;;;3.13;;
16642;SDS011;8435;52.184;5.406;2023-04-24T02:39:38;3.20;;;3.00;;
16642;SDS011;8435;52.184;5.406;2023-04-24T02:42:05;3.23;;;3.03;;
16642;SDS011;8435;52.184;5.406;2023-04-24T02:44:33;3.13;;;2.83;;
16642;SDS011;8435;52.184;5.406;2023-04-24T02:47:00;3.03;;;2.83;;
16642;SDS011;8435;52.184;5.406;2023-04-24T02:49:31;3.10;;;2.80;;
16642;SDS011;8435;52.184;5.406;2023-04-24T02:51:58;3.10;;;2.80;;
16642;SDS011;8435;52.184;5.406;2023-04-24T02:54:24;2.73;;;2.53;;
16642;SDS011;8435;52.184;5.406;2023-04-24T02:56:51;2.30;;;2.10;;
16642;SDS011;8435;52.184;5.406;2023-04-24T02:59:18;1.90;;;1.80;;
16642;SDS011;8435;52.184;5.406;2023-04-24T03:01:45;2.27;;;2.13;;
16642;SDS011;8435;52.184;5.406;2023-04-24T03:04:12;1.80;;;1.70;;
16642;SDS011;8435;52.184;5.406;2023-04-24T03:06:40;1.50;;;1.40;;
16642;SDS011;8435;52.184;5.406;2023-04-24T03:09:06;1.33;;;1.23;;
16642;SDS011;8435;52.184;5.406;2023-04-24T03:11:34;1.20;;;1.10;;
16642;SDS011;8435;52.184;5.406;2023-04-24T03:14:01;0.90;;;0.90;;
16642;SDS011;8435;52.184;5.406;2023-04-24T03:16:28;0.73;;;0.73;;
16642;SDS011;8435;52.184;5.406;2023-04-24T03:18:55;0.87;;;0.70;;
16642;SDS011;8435;52.184;5.406;2023-04-24T03:21:22;0.67;;;0.67;;
16642;SDS011;8435;52.184;5.406;2023-04-24T03:23:50;0.83;;;0.83;;
16642;SDS011;8435;52.184;5.406;2023-04-24T03:26:17;0.70;;;0.70;;
16642;SDS011;8435;52.184;5.406;2023-04-24T03:28:43;0.60;;;0.60;;
16642;SDS011;8435;52.184;5.406;2023-04-24T03:31:10;0.70;;;0.70;;
16642;SDS011;8435;52.184;5.406;2023-04-24T03:33:42;1.23;;;0.83;;
16642;SDS011;8435;52.184;5.406;2023-04-24T03:36:09;0.83;;;0.80;;
16642;SDS011;8435;52.184;5.406;2023-04-24T03:38:36;0.60;;;0.60;;
16642;SDS011;8435;52.184;5.406;2023-04-24T03:41:04;1.10;;;0.80;;
16642;SDS011;8435;52.184;5.406;2023-04-24T03:43:31;1.00;;;0.90;;
16642;SDS011;8435;52.184;5.406;2023-04-24T03:45:58;0.83;;;0.83;;
16642;SDS011;8435;52.184;5.406;2023-04-24T03:48:25;1.50;;;1.37;;
16642;SDS011;8435;52.184;5.406;2023-04-24T03:50:52;2.60;;;2.40;;
16642;SDS011;8435;52.184;5.406;2023-04-24T03:53:18;1.30;;;1.20;;
16642;SDS011;8435;52.184;5.406;2023-04-24T03:55:45;0.87;;;0.87;;
16642;SDS011;8435;52.184;5.406;2023-04-24T03:58:14;1.17;;;1.00;;
16642;SDS011;8435;52.184;5.406;2023-04-24T04:00:40;1.00;;;1.00;;
16642;SDS011;8435;52.184;5.406;2023-04-24T04:03:09;1.43;;;1.00;;
16642;SDS011;8435;52.184;5.406;2023-04-24T04:05:36;0.87;;;0.87;;
16642;SDS011;8435;52.184;5.406;2023-04-24T04:08:03;0.93;;;0.93;;
16642;SDS011;8435;52.184;5.406;2023-04-24T04:10:31;0.90;;;0.90;;
16642;SDS011;8435;52.184;5.406;2023-04-24T04:12:58;1.20;;;1.20;;
16642;SDS011;8435;52.184;5.406;2023-04-24T04:15:29;1.03;;;1.03;;
16642;SDS011;8435;52.184;5.406;2023-04-24T04:17:56;1.00;;;1.00;;
16642;SDS011;8435;52.184;5.406;2023-04-24T04:20:22;0.97;;;0.90;;
16642;SDS011;8435;52.184;5.406;2023-04-24T04:22:52;1.00;;;1.00;;
16642;SDS011;8435;52.184;5.406;2023-04-24T04:25:19;1.10;;;1.00;;
16642;SDS011;8435;52.184;5.406;2023-04-24T04:27:48;0.90;;;0.90;;
16642;SDS011;8435;52.184;5.406;2023-04-24T04:30:16;0.90;;;0.90;;
16642;SDS011;8435;52.184;5.406;2023-04-24T04:32:44;0.73;;;0.73;;
16642;SDS011;8435;52.184;5.406;2023-04-24T04:35:11;0.97;;;0.97;;
16642;SDS011;8435;52.184;5.406;2023-04-24T04:37:38;1.23;;;0.73;;
16642;SDS011;8435;52.184;5.406;2023-04-24T04:40:05;0.60;;;0.60;;
16642;SDS011;8435;52.184;5.406;2023-04-24T04:42:36;0.83;;;0.83;;
16642;SDS011;8435;52.184;5.406;2023-04-24T04:45:05;1.07;;;1.00;;
16642;SDS011;8435;52.184;5.406;2023-04-24T04:47:36;1.53;;;1.00;;
16642;SDS011;8435;52.184;5.406;2023-04-24T04:50:06;1.10;;;1.00;;
16642;SDS011;8435;52.184;5.406;2023-04-24T04:52:33;1.20;;;1.20;;
16642;SDS011;8435;52.184;5.406;2023-04-24T04:55:00;1.57;;;1.03;;
16642;SDS011;8435;52.184;5.406;2023-04-24T04:57:28;1.07;;;1.03;;
16642;SDS011;8435;52.184;5.406;2023-04-24T04:59:55;1.10;;;1.00;;
16642;SDS011;8435;52.184;5.406;2023-04-24T05:02:21;2.10;;;1.50;;
16642;SDS011;8435;52.184;5.406;2023-04-24T05:04:48;1.30;;;1.20;;
16642;SDS011;8435;52.184;5.406;2023-04-24T05:07:16;1.70;;;1.60;;
16642;SDS011;8435;52.184;5.406;2023-04-24T05:09:46;1.57;;;1.47;;
16642;SDS011;8435;52.184;5.406;2023-04-24T05:12:13;2.90;;;1.50;;
16642;SDS011;8435;52.184;5.406;2023-04-24T05:14:39;1.47;;;1.40;;
16642;SDS011;8435;52.184;5.406;2023-04-24T05:17:06;1.97;;;1.87;;
16642;SDS011;8435;52.184;5.406;2023-04-24T05:19:35;1.90;;;1.80;;
16642;SDS011;8435;52.184;5.406;2023-04-24T05:22:03;2.37;;;2.17;;
16642;SDS011;8435;52.184;5.406;2023-04-24T05:24:36;2.20;;;2.03;;
16642;SDS011;8435;52.184;5.406;2023-04-24T05:27:03;2.63;;;2.40;;
16642;SDS011;8435;52.184;5.406;2023-04-24T05:29:32;2.57;;;2.37;;
16642;SDS011;8435;52.184;5.406;2023-04-24T05:31:59;2.50;;;2.30;;
16642;SDS011;8435;52.184;5.406;2023-04-24T05:34:26;2.73;;;2.53;;
16642;SDS011;8435;52.184;5.406;2023-04-24T05:36:56;2.53;;;2.33;;
16642;SDS011;8435;52.184;5.406;2023-04-24T05:39:23;2.50;;;2.30;;
16642;SDS011;8435;52.184;5.406;2023-04-24T05:41:52;3.10;;;2.90;;
16642;SDS011;8435;52.184;5.406;2023-04-24T05:44:20;3.40;;;3.07;;
16642;SDS011;8435;52.184;5.406;2023-04-24T05:46:47;3.47;;;3.17;;
16642;SDS011;8435;52.184;5.406;2023-04-24T05:49:14;3.10;;;2.77;;
16642;SDS011;8435;52.184;5.406;2023-04-24T05:51:40;3.40;;;2.83;;
16642;SDS011;8435;52.184;5.406;2023-04-24T05:54:07;3.17;;;2.57;;
16642;SDS011;8435;52.184;5.406;2023-04-24T05:56:37;3.00;;;2.80;;
16642;SDS011;8435;52.184;5.406;2023-04-24T05:59:05;3.70;;;3.17;;
16642;SDS011;8435;52.184;5.406;2023-04-24T06:01:32;3.07;;;2.77;;
16642;SDS011;8435;52.184;5.406;2023-04-24T06:03:59;2.10;;;2.00;;
16642;SDS011;8435;52.184;5.406;2023-04-24T06:06:26;2.60;;;2.03;;
16642;SDS011;8435;52.184;5.406;2023-04-24T06:08:53;2.00;;;1.90;;
16642;SDS011;8435;52.184;5.406;2023-04-24T06:11:20;1.60;;;1.50;;
16642;SDS011;8435;52.184;5.406;2023-04-24T06:13:50;1.30;;;1.30;;
16642;SDS011;8435;52.184;5.406;2023-04-24T06:16:19;1.60;;;1.23;;
16642;SDS011;8435;52.184;5.406;2023-04-24T06:18:46;1.10;;;1.10;;
16642;SDS011;8435;52.184;5.406;2023-04-24T06:21:15;1.57;;;1.47;;
16642;SDS011;8435;52.184;5.406;2023-04-24T06:23:42;1.43;;;1.20;;
16642;SDS011;8435;52.184;5.406;2023-04-24T06:26:11;0.77;;;0.70;;
16642;SDS011;8435;52.184;5.406;2023-04-24T06:28:38;0.80;;;0.70;;
16642;SDS011;8435;52.184;5.406;2023-04-24T06:31:05;1.10;;;0.63;;
16642;SDS011;8435;52.184;5.406;2023-04-24T06:33:33;0.80;;;0.80;;
16642;SDS011;8435;52.184;5.406;2023-04-24T06:36:05;1.43;;;1.30;;
16642;SDS011;8435;52.184;5.406;2023-04-24T06:38:32;2.57;;;2.37;;
16642;SDS011;8435;52.184;5.406;2023-04-24T06:40:59;4.17;;;3.77;;
16642;SDS011;8435;52.184;5.406;2023-04-24T06:43:26;5.57;;;4.83;;
16642;SDS011;8435;52.184;5.406;2023-04-24T06:45:53;6.53;;;5.80;;
16642;SDS011;8435;52.184;5.406;2023-04-24T06:48:20;6.57;;;5.97;;
16642;SDS011;8435;52.184;5.406;2023-04-24T06:50:48;7.17;;;5.70;;
16642;SDS011;8435;52.184;5.406;2023-04-24T06:53:15;6.70;;;6.00;;
16642;SDS011;8435;52.184;5.406;2023-04-24T06:55:43;8.43;;;6.33;;
16642;SDS011;8435;52.184;5.406;2023-04-24T06:58:11;7.90;;;6.93;;
16642;SDS011;8435;52.184;5.406;2023-04-24T07:00:38;6.90;;;6.20;;
16642;SDS011;8435;52.184;5.406;2023-04-24T07:03:05;7.50;;;6.40;;
16642;SDS011;8435;52.184;5.406;2023-04-24T07:05:31;8.50;;;6.80;;
16642;SDS011;8435;52.184;5.406;2023-04-24T07:08:01;7.73;;;6.83;;
16642;SDS011;8435;52.184;5.406;2023-04-24T07:10:29;7.50;;;6.73;;
16642;SDS011;8435;52.184;5.406;2023-04-24T07:12:55;9.73;;;7.10;;
16642;SDS011;8435;52.184;5.406;2023-04-24T07:15:22;9.60;;;6.93;;
16642;SDS011;8435;52.184;5.406;2023-04-24T07:17:49;8.27;;;6.87;;
16642;SDS011;8435;52.184;5.406;2023-04-24T07:20:16;9.37;;;7.47;;
16642;SDS011;8435;52.184;5.406;2023-04-24T07:22:43;9.73;;;6.50;;
16642;SDS011;8435;52.184;5.406;2023-04-24T07:25:14;10.60;;;6.57;;
16642;SDS011;8435;52.184;5.406;2023-04-24T07:27:41;9.03;;;6.80;;
16642;SDS011;8435;52.184;5.406;2023-04-24T07:30:08;9.40;;;6.43;;
16642;SDS011;8435;52.184;5.406;2023-04-24T07:32:35;8.37;;;6.57;;
16642;SDS011;8435;52.184;5.406;2023-04-24T07:35:04;7.77;;;6.47;;
16642;SDS011;8435;52.184;5.406;2023-04-24T07:37:31;9.50;;;6.50;;
16642;SDS011;8435;52.184;5.406;2023-04-24T07:39:58;9.87;;;6.33;;
16642;SDS011;8435;52.184;5.406;2023-04-24T07:42:26;8.67;;;6.83;;
16642;SDS011;8435;52.184;5.406;2023-04-24T07:44:55;10.40;;;6.43;;
16642;SDS011;8435;52.184;5.406;2023-04-24T07:47:25;8.53;;;6.30;;
16642;SDS011;8435;52.184;5.406;2023-04-24T07:49:52;8.10;;;6.30;;
16642;SDS011;8435;52.184;5.406;2023-04-24T07:52:19;7.83;;;6.37;;
16642;SDS011;8435;52.184;5.406;2023-04-24T07:54:46;8.80;;;6.37;;
16642;SDS011;8435;52.184;5.406;2023-04-24T07:57:13;7.87;;;6.50;;
16642;SDS011;8435;52.184;5.406;2023-04-24T07:59:41;8.43;;;6.27;;
16642;SDS011;8435;52.184;5.406;2023-04-24T08:02:07;12.50;;;6.30;;
16642;SDS011;8435;52.184;5.406;2023-04-24T08:04:34;8.43;;;6.17;;
16642;SDS011;8435;52.184;5.406;2023-04-24T08:07:01;8.97;;;6.27;;
16642;SDS011;8435;52.184;5.406;2023-04-24T08:09:28;7.03;;;5.80;;
16642;SDS011;8435;52.184;5.406;2023-04-24T08:11:55;10.63;;;5.87;;
16642;SDS011;8435;52.184;5.406;2023-04-24T08:14:22;6.20;;;4.80;;
16642;SDS011;8435;52.184;5.406;2023-04-24T08:16:50;7.73;;;5.00;;
16642;SDS011;8435;52.184;5.406;2023-04-24T08:19:21;7.00;;;4.73;;
16642;SDS011;8435;52.184;5.406;2023-04-24T08:21:47;9.40;;;5.47;;
16642;SDS011;8435;52.184;5.406;2023-04-24T08:24:15;7.73;;;4.77;;
16642;SDS011;8435;52.184;5.406;2023-04-24T08:26:42;8.10;;;4.37;;
16642;SDS011;8435;52.184;5.406;2023-04-24T08:29:15;6.57;;;3.67;;
16642;SDS011;8435;52.184;5.406;2023-04-24T08:31:44;7.40;;;3.37;;
16642;SDS011;8435;52.184;5.406;2023-04-24T08:34:12;6.00;;;3.10;;
16642;SDS011;8435;52.184;5.406;2023-04-24T08:36:39;5.17;;;3.03;;
16642;SDS011;8435;52.184;5.406;2023-04-24T08:39:06;5.37;;;3.07;;
16642;SDS011;8435;52.184;5.406;2023-04-24T08:41:33;4.33;;;2.60;;
16642;SDS011;8435;52.184;5.406;2023-04-24T08:44:01;5.57;;;3.23;;
16642;SDS011;8435;52.184;5.406;2023-04-24T08:46:45;5.00;;;2.93;;
16642;SDS011;8435;52.184;5.406;2023-04-24T08:49:17;6.03;;;3.50;;
16642;SDS011;8435;52.184;5.406;2023-04-24T08:51:44;8.23;;;3.60;;
16642;SDS011;8435;52.184;5.406;2023-04-24T08:54:13;6.97;;;3.50;;
16642;SDS011;8435;52.184;5.406;2023-04-24T08:56:40;9.37;;;3.50;;
16642;SDS011;8435;52.184;5.406;2023-04-24T08:59:12;3.97;;;3.13;;
16642;SDS011;8435;52.184;5.406;2023-04-24T09:01:45;8.73;;;3.47;;
16642;SDS011;8435;52.184;5.406;2023-04-24T09:04:12;9.00;;;3.90;;
16642;SDS011;8435;52.184;5.406;2023-04-24T09:06:45;5.97;;;2.60;;
16642;SDS011;8435;52.184;5.406;2023-04-24T09:09:21;6.70;;;2.57;;
16642;SDS011;8435;52.184;5.406;2023-04-24T09:11:49;15.63;;;2.80;;
16642;SDS011;8435;52.184;5.406;2023-04-24T09:14:20;6.73;;;2.30;;
16642;SDS011;8435;52.184;5.406;2023-04-24T09:16:48;5.27;;;2.70;;
16642;SDS011;8435;52.184;5.406;2023-04-24T09:19:17;7.37;;;2.40;;
16642;SDS011;8435;52.184;5.406;2023-04-24T09:21:47;4.87;;;2.40;;
16642;SDS011;8435;52.184;5.406;2023-04-24T09:24:14;5.03;;;2.37;;
16642;SDS011;8435;52.184;5.406;2023-04-24T09:26:43;8.87;;;3.07;;
16642;SDS011;8435;52.184;5.406;2023-04-24T09:29:13;5.53;;;2.70;;
16642;SDS011;8435;52.184;5.406;2023-04-24T09:31:42;7.00;;;2.37;;
16642;SDS011;8435;52.184;5.406;2023-04-24T09:34:11;9.37;;;2.67;;
16642;SDS011;8435;52.184;5.406;2023-04-24T09:36:40;5.83;;;2.57;;
16642;SDS011;8435;52.184;5.406;2023-04-24T09:39:11;5.60;;;2.50;;
16642;SDS011;8435;52.184;5.406;2023-04-24T09:41:43;6.60;;;2.20;;
16642;SDS011;8435;52.184;5.406;2023-04-24T09:44:11;6.77;;;2.27;;
16642;SDS011;8435;52.184;5.406;2023-04-24T09:46:41;5.77;;;2.60;;
16642;SDS011;8435;52.184;5.406;2023-04-24T09:49:09;6.57;;;2.20;;
16642;SDS011;8435;52.184;5.406;2023-04-24T09:51:37;9.93;;;2.60;;
16642;SDS011;8435;52.184;5.406;2023-04-24T09:54:10;4.63;;;2.20;;
16642;SDS011;8435;52.184;5.406;2023-04-24T09:56:42;5.50;;;2.43;;
16642;SDS011;8435;52.184;5.406;2023-04-24T09:59:10;6.87;;;2.70;;
16642;SDS011;8435;52.184;5.406;2023-04-24T10:01:38;5.47;;;2.33;;
16642;SDS011;8435;52.184;5.406;2023-04-24T10:04:14;5.47;;;2.33;;
16642;SDS011;8435;52.184;5.406;2023-04-24T10:06:43;8.57;;;2.50;;
16642;SDS011;8435;52.184;5.406;2023-04-24T10:09:12;7.03;;;2.70;;
16642;SDS011;8435;52.184;5.406;2023-04-24T10:11:40;8.57;;;2.60;;
16642;SDS011;8435;52.184;5.406;2023-04-24T10:14:09;8.40;;;3.43;;
16642;SDS011;8435;52.184;5.406;2023-04-24T10:16:38;4.87;;;2.10;;
16642;SDS011;8435;52.184;5.406;2023-04-24T10:19:09;5.73;;;2.77;;
16642;SDS011;8435;52.184;5.406;2023-04-24T10:21:38;3.57;;;2.10;;
16642;SDS011;8435;52.184;5.406;2023-04-24T10:24:12;4.03;;;1.93;;
16642;SDS011;8435;52.184;5.406;2023-04-24T10:26:40;4.77;;;1.67;;
16642;SDS011;8435;52.184;5.406;2023-04-24T10:29:11;3.00;;;1.40;;
16642;SDS011;8435;52.184;5.406;2023-04-24T10:31:38;3.33;;;0.90;;
16642;SDS011;8435;52.184;5.406;2023-04-24T10:34:08;1.53;;;0.97;;
16642;SDS011;8435;52.184;5.406;2023-04-24T10:36:38;2.53;;;1.27;;
16642;SDS011;8435;52.184;5.406;2023-04-24T10:39:09;1.43;;;1.10;;
16642;SDS011;8435;52.184;5.406;2023-04-24T10:41:40;2.90;;;1.30;;
16642;SDS011;8435;52.184;5.406;2023-04-24T10:44:07;2.30;;;1.27;;
16642;SDS011;8435;52.184;5.406;2023-04-24T10:46:42;3.67;;;1.60;;
16642;SDS011;8435;52.184;5.406;2023-04-24T10:49:13;3.17;;;1.30;;
16642;SDS011;8435;52.184;5.406;2023-04-24T10:51:47;2.37;;;1.20;;
16642;SDS011;8435;52.184;5.406;2023-04-24T10:54:23;3.57;;;1.23;;
16642;SDS011;8435;52.184;5.406;2023-04-24T10:56:53;2.20;;;1.13;;
16642;SDS011;8435;52.184;5.406;2023-04-24T11:00:10;2.67;;;1.20;;
16642;SDS011;8435;52.184;5.406;2023-04-24T11:02:45;1.70;;;0.80;;
16642;SDS011;8435;52.184;5.406;2023-04-24T11:05:15;3.73;;;1.30;;
16642;SDS011;8435;52.184;5.406;2023-04-24T11:10:39;3.80;;;1.60;;
16642;SDS011;8435;52.184;5.406;2023-04-24T11:13:15;2.33;;;1.40;;
16642;SDS011;8435;52.184;5.406;2023-04-24T11:15:42;2.13;;;1.37;;
16642;SDS011;8435;52.184;5.406;2023-04-24T11:18:12;2.03;;;1.10;;
16642;SDS011;8435;52.184;5.406;2023-04-24T11:20:41;2.63;;;1.20;;
16642;SDS011;8435;52.184;5.406;2023-04-24T11:23:08;1.83;;;1.00;;
16642;SDS011;8435;52.184;5.406;2023-04-24T11:25:40;2.10;;;1.10;;
16642;SDS011;8435;52.184;5.406;2023-04-24T11:28:07;1.43;;;1.00;;
16642;SDS011;8435;52.184;5.406;2023-04-24T11:30:41;3.27;;;1.10;;
16642;SDS011;8435;52.184;5.406;2023-04-24T11:33:08;1.33;;;0.90;;
16642;SDS011;8435;52.184;5.406;2023-04-24T11:35:37;2.97;;;1.10;;
16642;SDS011;8435;52.184;5.406;2023-04-24T11:38:08;3.63;;;1.20;;
16642;SDS011;8435;52.184;5.406;2023-04-24T11:40:47;1.33;;;1.00;;
16642;SDS011;8435;52.184;5.406;2023-04-24T11:43:17;3.00;;;1.47;;
16642;SDS011;8435;52.184;5.406;2023-04-24T11:45:47;0.73;;;0.70;;
16642;SDS011;8435;52.184;5.406;2023-04-24T11:48:18;1.10;;;0.90;;
16642;SDS011;8435;52.184;5.406;2023-04-24T11:50:47;0.60;;;0.60;;
16642;SDS011;8435;52.184;5.406;2023-04-24T11:53:18;0.50;;;0.50;;
16642;SDS011;8435;52.184;5.406;2023-04-24T11:55:47;0.93;;;0.60;;
16642;SDS011;8435;52.184;5.406;2023-04-24T11:58:13;0.60;;;0.50;;
16642;SDS011;8435;52.184;5.406;2023-04-24T12:00:40;1.10;;;0.70;;
16642;SDS011;8435;52.184;5.406;2023-04-24T12:03:07;0.80;;;0.70;;
16642;SDS011;8435;52.184;5.406;2023-04-24T12:05:35;0.83;;;0.60;;
16642;SDS011;8435;52.184;5.406;2023-04-24T12:08:02;1.47;;;0.63;;
16642;SDS011;8435;52.184;5.406;2023-04-24T12:10:29;1.53;;;0.60;;
16642;SDS011;8435;52.184;5.406;2023-04-24T12:12:58;1.87;;;0.90;;
16642;SDS011;8435;52.184;5.406;2023-04-24T12:15:26;0.90;;;0.60;;
16642;SDS011;8435;52.184;5.406;2023-04-24T12:17:56;3.20;;;1.03;;
16642;SDS011;8435;52.184;5.406;2023-04-24T12:20:23;2.13;;;0.93;;
16642;SDS011;8435;52.184;5.406;2023-04-24T12:22:52;2.90;;;1.00;;
16642;SDS011;8435;52.184;5.406;2023-04-24T12:25:21;3.13;;;1.27;;
16642;SDS011;8435;52.184;5.406;2023-04-24T12:27:52;1.43;;;0.87;;
16642;SDS011;8435;52.184;5.406;2023-04-24T12:30:26;2.83;;;1.30;;
16642;SDS011;8435;52.184;5.406;2023-04-24T12:32:53;3.17;;;1.00;;
16642;SDS011;8435;52.184;5.406;2023-04-24T12:35:21;2.77;;;1.13;;
16642;SDS011;8435;52.184;5.406;2023-04-24T12:37:49;2.03;;;1.10;;
16642;SDS011;8435;52.184;5.406;2023-04-24T12:40:16;4.93;;;1.53;;
16642;SDS011;8435;52.184;5.406;2023-04-24T12:42:44;2.17;;;1.20;;
16642;SDS011;8435;52.184;5.406;2023-04-24T12:45:12;2.73;;;1.67;;
16642;SDS011;8435;52.184;5.406;2023-04-24T12:47:42;4.67;;;1.40;;
16642;SDS011;8435;52.184;5.406;2023-04-24T12:50:11;7.60;;;1.63;;
16642;SDS011;8435;52.184;5.406;2023-04-24T12:52:39;3.53;;;1.80;;
16642;SDS011;8435;52.184;5.406;2023-04-24T12:55:06;2.50;;;1.40;;
16642;SDS011;8435;52.184;5.406;2023-04-24T12:57:34;5.63;;;2.20;;
16642;SDS011;8435;52.184;5.406;2023-04-24T13:00:02;4.90;;;2.07;;
16642;SDS011;8435;52.184;5.406;2023-04-24T13:02:31;6.07;;;1.77;;
16642;SDS011;8435;52.184;5.406;2023-04-24T13:05:00;4.50;;;1.67;;
16642;SDS011;8435;52.184;5.406;2023-04-24T13:07:27;4.70;;;2.20;;
16642;SDS011;8435;52.184;5.406;2023-04-24T13:09:54;7.27;;;2.57;;
16642;SDS011;8435;52.184;5.406;2023-04-24T13:12:22;6.47;;;2.47;;
16642;SDS011;8435;52.184;5.406;2023-04-24T13:14:53;6.43;;;2.47;;
16642;SDS011;8435;52.184;5.406;2023-04-24T13:17:21;7.97;;;2.23;;
16642;SDS011;8435;52.184;5.406;2023-04-24T13:19:49;5.63;;;2.37;;
16642;SDS011;8435;52.184;5.406;2023-04-24T13:22:18;5.60;;;2.70;;
16642;SDS011;8435;52.184;5.406;2023-04-24T13:24:45;12.40;;;2.63;;
16642;SDS011;8435;52.184;5.406;2023-04-24T13:27:13;4.60;;;2.10;;
16642;SDS011;8435;52.184;5.406;2023-04-24T13:29:40;5.77;;;2.80;;
16642;SDS011;8435;52.184;5.406;2023-04-24T13:32:08;7.17;;;2.77;;
16642;SDS011;8435;52.184;5.406;2023-04-24T13:34:36;5.60;;;2.37;;
16642;SDS011;8435;52.184;5.406;2023-04-24T13:37:03;4.40;;;2.53;;
16642;SDS011;8435;52.184;5.406;2023-04-24T13:39:31;5.97;;;2.33;;
16642;SDS011;8435;52.184;5.406;2023-04-24T13:41:58;6.30;;;2.63;;
16642;SDS011;8435;52.184;5.406;2023-04-24T13:44:27;5.33;;;2.57;;
16642;SDS011;8435;52.184;5.406;2023-04-24T13:46:57;6.30;;;2.30;;
16642;SDS011;8435;52.184;5.406;2023-04-24T13:49:24;5.47;;;2.60;;
16642;SDS011;8435;52.184;5.406;2023-04-24T13:51:52;5.13;;;2.30;;
16642;SDS011;8435;52.184;5.406;2023-04-24T13:54:20;9.60;;;2.40;;
16642;SDS011;8435;52.184;5.406;2023-04-24T13:56:49;8.07;;;2.80;;
16642;SDS011;8435;52.184;5.406;2023-04-24T13:59:16;7.73;;;2.67;;
16642;SDS011;8435;52.184;5.406;2023-04-24T14:01:43;6.83;;;2.70;;
16642;SDS011;8435;52.184;5.406;2023-04-24T14:04:13;6.47;;;3.03;;
16642;SDS011;8435;52.184;5.406;2023-04-24T14:06:40;5.50;;;2.50;;
16642;SDS011;8435;52.184;5.406;2023-04-24T14:09:06;7.20;;;2.50;;
16642;SDS011;8435;52.184;5.406;2023-04-24T14:11:33;9.57;;;3.10;;
16642;SDS011;8435;52.184;5.406;2023-04-24T14:14:01;6.40;;;2.90;;
16642;SDS011;8435;52.184;5.406;2023-04-24T14:16:28;7.40;;;2.13;;
16642;SDS011;8435;52.184;5.406;2023-04-24T14:18:56;6.60;;;3.17;;
16642;SDS011;8435;52.184;5.406;2023-04-24T14:21:23;7.00;;;2.70;;
16642;SDS011;8435;52.184;5.406;2023-04-24T14:23:49;4.27;;;2.40;;
16642;SDS011;8435;52.184;5.406;2023-04-24T14:26:16;5.63;;;2.87;;
16642;SDS011;8435;52.184;5.406;2023-04-24T14:28:43;5.80;;;2.50;;
16642;SDS011;8435;52.184;5.406;2023-04-24T14:31:14;6.13;;;3.10;;
16642;SDS011;8435;52.184;5.406;2023-04-24T14:33:41;7.33;;;2.80;;
16642;SDS011;8435;52.184;5.406;2023-04-24T14:36:09;8.33;;;3.37;;
16642;SDS011;8435;52.184;5.406;2023-04-24T14:38:42;8.17;;;3.40;;
16642;SDS011;8435;52.184;5.406;2023-04-24T14:41:08;8.00;;;3.33;;
16642;SDS011;8435;52.184;5.406;2023-04-24T14:43:36;5.83;;;2.90;;
16642;SDS011;8435;52.184;5.406;2023-04-24T14:46:03;8.47;;;3.53;;
16642;SDS011;8435;52.184;5.406;2023-04-24T14:48:32;8.40;;;3.30;;
16642;SDS011;8435;52.184;5.406;2023-04-24T14:50:58;6.33;;;2.90;;
16642;SDS011;8435;52.184;5.406;2023-04-24T14:53:25;6.37;;;2.87;;
16642;SDS011;8435;52.184;5.406;2023-04-24T14:55:52;5.70;;;2.67;;
16642;SDS011;8435;52.184;5.406;2023-04-24T14:58:19;4.63;;;2.57;;
16642;SDS011;8435;52.184;5.406;2023-04-24T15:00:46;5.37;;;2.57;;
16642;SDS011;8435;52.184;5.406;2023-04-24T15:03:14;3.93;;;2.20;;
16642;SDS011;8435;52.184;5.406;2023-04-24T15:05:49;3.63;;;2.20;;
16642;SDS011;8435;52.184;5.406;2023-04-24T15:08:16;5.70;;;2.60;;
16642;SDS011;8435;52.184;5.406;2023-04-24T15:10:43;5.83;;;2.67;;